EGUB

RAF Benson Airport

Benson, United Kingdom
METAR EGUB 180950Z 26011KT 9999 BKN026 18/11 Q1019 BLU NOSIG
Observed Flight Rules
Jun-18 @ 09:50 UTC (an hour ago) Marginal Visual Flight Rules
Wind Visibility Clouds
260° at 11 knots 10,000+ meters
  • Broken at 2,600' AGL
Temperatures Readings
Current 18°C / 64°F
Dewpoint 11°C / 52°F
Humidity 64%
Altimeter 30.09" Hg
Pressure 1019 hPa
Elevation 63
METAR EGUB 180950Z 26011KT 9999 BKN026 18/11 Q1019 BLU NOSIG
Observed Flight Rules
Jun-18 @ 09:50 UTC
(an hour ago)
MVFR
Wind Visibility
260° at 11 knots 10,000+ meters
Clouds
  • Broken at 2,600' AGL
Temperature Dewpoint
18°C / 64°F 11°C / 52°F
Humidity Altimeter Pressure
64% 30.09" Hg 1019 hPa